CheckWX is a tool to help pilots better visualize weather data.  It is not intended as a substitute for an official pre-flight weather briefing.

13:01:25 UTC

0R4 METAR
Concordia Parish Airport
Vidalia, Louisiana, USA
Current

26 mins ago

K0R4 261235Z AUTO 36011G16KT 10SM CLR 11/07 A3024 RMK AO2 T01120068
Observed
Mar-26 @ 12:35 UTC
Wind
  • 360° at 11 KTS
  • Gusting to 16 KTS
Visibility
10 SM
Flight Rules
VFR
Cloud Levels
  • Clear skies
Temperature
11°C / 52°F
Dewpoint
C / 45°F
Humidity
77%
Altimeter
30.24" Hg
Pressure
1024.02 hPa
Previous

46 mins ago

K0R4 261215Z AUTO 36009G14KT 10SM CLR 11/07 A3024 RMK AO2 T01120070
Observed
Mar-26 @ 12:15 UTC
Wind
  • 360° at 9 KTS
  • Gusting to 14 KTS
Visibility
10 SM
Flight Rules
VFR
Cloud Levels
  • Clear skies
Temperature
11°C / 52°F
Dewpoint
C / 45°F
Humidity
77%
Altimeter
30.24" Hg
Pressure
1024.02 hPa
Previous

1 hour ago

K0R4 261155Z AUTO 36007KT 10SM CLR 11/07 A3023 RMK AO2 70014 T01130070 10150 20113
Observed
Mar-26 @ 11:55 UTC
Wind
  • 360° at 7 KTS
Visibility
10 SM
Flight Rules
VFR
Cloud Levels
  • Clear skies
Temperature
11°C / 52°F
Dewpoint
C / 45°F
Humidity
77%
Altimeter
30.23" Hg
Pressure
1023.72 hPa